createdAt,value
2023-05-30T00:02:17.988Z,100930.66
2023-05-30T00:04:46.194Z,100919.91
2023-05-30T00:07:15.374Z,100942.63
2023-05-30T00:09:42.413Z,100944.63
2023-05-30T00:12:12.182Z,100933.44
2023-05-30T00:14:39.765Z,100947.72
2023-05-30T00:17:07.043Z,100934.28
2023-05-30T00:19:34.146Z,100917.19
2023-05-30T00:22:01.642Z,100941.34
2023-05-30T00:24:30.450Z,100943.69
2023-05-30T00:26:58.778Z,100947.13
2023-05-30T00:29:25.671Z,100901.81
2023-05-30T00:31:52.488Z,100918.16
2023-05-30T00:34:19.434Z,100943.00
2023-05-30T00:36:46.421Z,100941.56
2023-05-30T00:39:16.705Z,100940.78
2023-05-30T00:41:44.788Z,100944.38
2023-05-30T00:44:12.741Z,100928.47
2023-05-30T00:46:40.875Z,100931.41
2023-05-30T00:49:08.299Z,100927.19
2023-05-30T00:51:34.868Z,100903.28
2023-05-30T00:54:03.355Z,100926.88
2023-05-30T00:56:32.737Z,100931.16
2023-05-30T00:59:05.519Z,100932.38
2023-05-30T01:01:39.392Z,100826.91
2023-05-30T01:04:10.999Z,100832.22
2023-05-30T01:06:40.912Z,100854.94
2023-05-30T01:09:08.166Z,100916.63
2023-05-30T01:12:06.194Z,100935.38
2023-05-30T01:14:39.618Z,100904.75
2023-05-30T01:17:24.577Z,100922.28
2023-05-30T01:20:12.674Z,100929.63
2023-05-30T01:22:59.731Z,100916.53
2023-05-30T01:25:59.377Z,100937.00
2023-05-30T01:28:29.743Z,100911.47
2023-05-30T01:30:59.532Z,100912.59
2023-05-30T01:33:28.327Z,100933.88
2023-05-30T01:35:56.106Z,100933.19
2023-05-30T01:38:24.924Z,100937.84
2023-05-30T01:40:56.001Z,100924.00
2023-05-30T01:43:46.360Z,100907.75
2023-05-30T01:46:31.687Z,100919.34
2023-05-30T01:49:10.792Z,100922.97
2023-05-30T01:51:46.469Z,100936.44
2023-05-30T01:54:18.330Z,100941.38
2023-05-30T01:56:49.535Z,100935.50
2023-05-30T01:59:21.610Z,100919.88
2023-05-30T02:01:52.344Z,100899.41
2023-05-30T02:04:19.200Z,100907.22
2023-05-30T02:06:47.868Z,100954.88
2023-05-30T02:09:16.382Z,100953.41
2023-05-30T02:11:43.048Z,100936.94
2023-05-30T02:14:10.363Z,100956.06
2023-05-30T02:16:38.224Z,100955.44
2023-05-30T02:19:04.973Z,100958.88
2023-05-30T02:21:31.867Z,100961.56
2023-05-30T02:23:58.622Z,100958.25
2023-05-30T02:26:27.265Z,100945.44
2023-05-30T02:28:55.330Z,100959.41
2023-05-30T02:31:21.931Z,100949.81
2023-05-30T02:33:52.774Z,100960.63
2023-05-30T02:36:19.651Z,100949.66
2023-05-30T02:38:47.441Z,100951.13
2023-05-30T02:41:16.087Z,100951.47
2023-05-30T02:43:43.042Z,100949.19
2023-05-30T02:46:09.891Z,100961.53
2023-05-30T02:48:37.646Z,100945.66
2023-05-30T02:51:04.441Z,100940.81
2023-05-30T02:53:31.329Z,100947.59
2023-05-30T02:56:00.013Z,100934.00
2023-05-30T02:58:27.552Z,100934.59
2023-05-30T03:00:56.841Z,100951.03
2023-05-30T03:03:28.490Z,100947.13
2023-05-30T03:05:55.845Z,100945.25
2023-05-30T03:08:26.369Z,100958.34
2023-05-30T03:10:54.648Z,100927.72
2023-05-30T03:13:21.999Z,100939.28
2023-05-30T03:15:49.431Z,100958.06
2023-05-30T03:18:17.228Z,100954.38
2023-05-30T03:20:45.459Z,100953.44
2023-05-30T03:23:12.625Z,100961.63
2023-05-30T03:25:39.501Z,100959.91
2023-05-30T03:28:08.030Z,100929.91
2023-05-30T03:30:36.852Z,100936.16
2023-05-30T03:33:06.150Z,100959.44
2023-05-30T03:35:35.003Z,100976.13
2023-05-30T03:38:09.767Z,100968.38
2023-05-30T03:40:36.425Z,100977.06
2023-05-30T03:43:04.485Z,100955.41
2023-05-30T03:45:31.607Z,100953.09
2023-05-30T03:47:59.446Z,100962.44
2023-05-30T03:50:26.116Z,100983.84
2023-05-30T03:52:52.739Z,100982.91
2023-05-30T03:55:23.574Z,100969.16
2023-05-30T03:57:50.431Z,100989.03
2023-05-30T04:00:18.732Z,100989.34
2023-05-30T04:02:46.385Z,100996.38
2023-05-30T04:05:14.830Z,100992.00
2023-05-30T04:07:41.560Z,100993.72
2023-05-30T04:10:21.628Z,100997.16
2023-05-30T04:12:48.576Z,100973.00
2023-05-30T04:15:19.297Z,100972.00
2023-05-30T04:17:46.882Z,100974.47
2023-05-30T04:20:19.580Z,100994.66
2023-05-30T04:23:05.817Z,100982.38
2023-05-30T04:25:32.696Z,101016.41
2023-05-30T04:27:59.987Z,100982.63
2023-05-30T04:30:28.881Z,101012.03
2023-05-30T04:32:57.012Z,101017.84
2023-05-30T04:35:24.716Z,101020.53
2023-05-30T04:37:55.283Z,101020.66
2023-05-30T04:40:25.756Z,101023.31
2023-05-30T04:42:53.273Z,100993.72
2023-05-30T04:45:21.073Z,101024.59
2023-05-30T04:47:49.290Z,101014.94
2023-05-30T04:50:17.113Z,101021.78
2023-05-30T04:52:45.494Z,101012.88
2023-05-30T04:57:56.291Z,101032.06
2023-05-30T05:00:23.392Z,101035.41
2023-05-30T05:02:52.950Z,100990.53
2023-05-30T05:05:20.610Z,101023.13
2023-05-30T05:07:48.378Z,101038.25
2023-05-30T05:10:15.795Z,101028.22
2023-05-30T05:12:44.976Z,101043.09
2023-05-30T05:15:18.558Z,101021.19
2023-05-30T05:17:49.791Z,101035.91
2023-05-30T05:20:16.761Z,101027.22
2023-05-30T05:22:44.903Z,101039.44
2023-05-30T05:25:11.940Z,101035.06
2023-05-30T05:27:41.343Z,101021.91
2023-05-30T05:30:17.064Z,101056.59
2023-05-30T05:32:52.795Z,101056.75
2023-05-30T05:35:19.727Z,101014.44
2023-05-30T05:37:47.191Z,101052.34
2023-05-30T05:40:15.598Z,101057.38
2023-05-30T05:42:44.159Z,101039.28
2023-05-30T05:45:14.879Z,101025.28
2023-05-30T05:47:42.211Z,101050.78
2023-05-30T05:50:12.984Z,101035.00
2023-05-30T05:52:40.290Z,101057.63
2023-05-30T05:55:09.991Z,101051.38
2023-05-30T05:57:41.344Z,101054.25
2023-05-30T06:00:09.863Z,101073.81
2023-05-30T06:02:38.600Z,101054.91
2023-05-30T06:05:10.161Z,101060.66
2023-05-30T06:07:40.457Z,101042.28
2023-05-30T06:10:14.373Z,101061.84
2023-05-30T06:12:43.266Z,101038.38
2023-05-30T06:15:10.409Z,101055.00
2023-05-30T06:17:38.180Z,101053.84
2023-05-30T06:20:05.384Z,101066.59
2023-05-30T06:22:35.069Z,101058.94
2023-05-30T06:25:01.895Z,101064.97
2023-05-30T06:27:30.125Z,101064.31
2023-05-30T06:29:57.826Z,101067.63
2023-05-30T06:32:25.032Z,101074.47
2023-05-30T06:34:53.247Z,101055.28
2023-05-30T06:37:22.399Z,101037.94
2023-05-30T06:39:53.041Z,101060.72
2023-05-30T06:42:25.716Z,101032.44
2023-05-30T06:44:55.449Z,101075.88
2023-05-30T06:47:27.128Z,101072.44
2023-05-30T06:49:55.549Z,101069.25
2023-05-30T06:52:22.430Z,101076.94
2023-05-30T06:54:49.286Z,101043.31
2023-05-30T06:57:16.207Z,101068.63
2023-05-30T06:59:45.740Z,101050.22
2023-05-30T07:02:24.135Z,101056.88
2023-05-30T07:04:53.912Z,101053.88
2023-05-30T07:07:21.100Z,101074.94
2023-05-30T07:09:48.326Z,101060.91
2023-05-30T07:12:20.103Z,101069.28
2023-05-30T07:14:50.029Z,101080.53
2023-05-30T07:17:19.450Z,101084.00
2023-05-30T07:19:51.453Z,101057.91
2023-05-30T07:22:18.685Z,101075.59
2023-05-30T07:24:47.423Z,101083.28
2023-05-30T07:27:16.190Z,101046.69
2023-05-30T07:29:46.074Z,101085.94
2023-05-30T07:32:16.367Z,101087.03
2023-05-30T07:37:29.330Z,101087.41
2023-05-30T07:40:00.223Z,101072.41
2023-05-30T07:42:43.806Z,101087.19
2023-05-30T07:45:16.380Z,101068.28
2023-05-30T07:51:05.936Z,101067.28
2023-05-30T07:53:45.084Z,101039.78
2023-05-30T07:56:32.200Z,101049.91
2023-05-30T07:59:05.651Z,101063.97
2023-05-30T08:01:34.512Z,101057.22
2023-05-30T08:04:20.233Z,101052.16
2023-05-30T08:06:47.351Z,101080.88
2023-05-30T08:09:22.487Z,101071.31
2023-05-30T08:11:55.177Z,101075.63
2023-05-30T08:22:56.154Z,101047.81
2023-05-30T08:28:11.650Z,101056.75
2023-05-30T08:33:24.244Z,101037.22
2023-05-30T08:38:38.790Z,101072.25
2023-05-30T08:41:05.503Z,101060.47
2023-05-30T08:52:24.166Z,101039.03
2023-05-30T09:04:00.774Z,101031.03
2023-05-30T09:11:57.781Z,101046.66
2023-05-30T09:14:36.204Z,101052.88
2023-05-30T09:19:48.863Z,101013.72
2023-05-30T09:26:36.267Z,101032.78
2023-05-30T09:29:47.141Z,101012.00
2023-05-30T09:32:17.932Z,101041.69
2023-05-30T09:37:49.483Z,101022.88
2023-05-30T09:40:24.361Z,101046.44
2023-05-30T09:48:20.190Z,101040.22
2023-05-30T09:51:17.415Z,101027.31
2023-05-30T09:54:08.202Z,101027.91
2023-05-30T09:56:54.545Z,100993.16
2023-05-30T10:02:21.832Z,101021.50
2023-05-30T10:04:51.964Z,101033.63
2023-05-30T10:07:32.160Z,101033.28
2023-05-30T10:13:03.866Z,100973.28
2023-05-30T10:15:31.723Z,101029.00
2023-05-30T10:18:07.973Z,101036.47
2023-05-30T10:20:38.001Z,101021.78
2023-05-30T10:25:58.808Z,101014.69
2023-05-30T10:28:30.782Z,101027.53
2023-05-30T10:31:00.176Z,101003.63
2023-05-30T10:33:56.321Z,100998.75
2023-05-30T10:36:25.881Z,101015.34
2023-05-30T10:42:09.704Z,101017.69
2023-05-30T10:45:00.733Z,101007.53
2023-05-30T10:47:46.056Z,101004.69
2023-05-30T10:50:23.389Z,100982.94
2023-05-30T10:52:50.297Z,101006.53
2023-05-30T10:55:18.491Z,101005.81
2023-05-30T11:00:35.680Z,100997.66
2023-05-30T11:03:06.218Z,100989.91
2023-05-30T11:08:21.145Z,100979.69
2023-05-30T11:11:05.058Z,100955.41
2023-05-30T11:13:32.957Z,100984.66
2023-05-30T11:16:05.992Z,100971.59
2023-05-30T11:18:40.541Z,100960.09
2023-05-30T11:27:17.283Z,100944.16
2023-05-30T11:30:03.479Z,100904.66
2023-05-30T12:02:53.904Z,100934.28
2023-05-30T12:13:53.915Z,100933.00
2023-05-30T12:16:39.043Z,100935.31
2023-05-30T12:22:08.631Z,100939.94
2023-05-30T12:34:58.245Z,100902.69
2023-05-30T12:37:40.828Z,100910.50
2023-05-30T12:53:59.489Z,100885.41
2023-05-30T12:56:35.622Z,100922.03
2023-05-30T12:59:12.434Z,100902.81
2023-05-30T13:01:47.985Z,100903.97
2023-05-30T13:04:20.471Z,100918.97
2023-05-30T13:06:48.523Z,100911.28
2023-05-30T13:12:00.142Z,100914.50
2023-05-30T13:14:31.765Z,100912.41
2023-05-30T13:19:56.731Z,100918.53
2023-05-30T13:22:25.407Z,100914.56
2023-05-30T13:24:59.172Z,100914.72
2023-05-30T13:27:26.520Z,100908.31
2023-05-30T13:30:04.535Z,100912.03
2023-05-30T13:32:34.501Z,100907.44
2023-05-30T13:35:04.985Z,100898.34
2023-05-30T13:37:33.950Z,100894.66
2023-05-30T13:40:08.346Z,100889.09
2023-05-30T13:45:21.065Z,100897.78
2023-05-30T13:48:03.936Z,100886.25
2023-05-30T13:50:37.700Z,100880.44
2023-05-30T13:53:13.511Z,100894.53
2023-05-30T13:55:40.998Z,100889.25
2023-05-30T13:58:10.425Z,100889.41
2023-05-30T14:00:39.697Z,100876.72
2023-05-30T14:05:52.929Z,100879.44
2023-05-30T14:08:23.731Z,100877.59
2023-05-30T14:10:51.758Z,100885.13
2023-05-30T14:13:24.894Z,100874.03
2023-05-30T14:18:42.252Z,100871.16
2023-05-30T14:23:51.732Z,100873.00
2023-05-30T14:26:21.231Z,100852.09
2023-05-30T14:31:39.998Z,100842.16
2023-05-30T14:34:10.040Z,100873.63
2023-05-30T14:36:41.930Z,100840.31
2023-05-30T14:39:10.949Z,100870.34
2023-05-30T14:41:40.412Z,100819.41
2023-05-30T14:44:29.525Z,100839.63
2023-05-30T14:47:01.755Z,100854.53
2023-05-30T14:49:31.930Z,100820.81
2023-05-30T14:57:29.186Z,100855.91
2023-05-30T14:59:56.711Z,100839.00
2023-05-30T15:05:24.816Z,100862.78
2023-05-30T15:08:00.647Z,100846.44
2023-05-30T15:10:31.239Z,100840.91
2023-05-30T15:13:01.010Z,100845.13
2023-05-30T15:15:28.025Z,100847.66
2023-05-30T15:17:57.073Z,100857.72
2023-05-30T15:20:23.716Z,100845.47
2023-05-30T15:22:50.384Z,100845.53
2023-05-30T15:25:17.802Z,100858.75
2023-05-30T15:27:47.111Z,100841.84
2023-05-30T15:30:14.622Z,100848.84
2023-05-30T15:32:43.597Z,100833.78
2023-05-30T15:35:12.650Z,100846.69
2023-05-30T15:37:40.066Z,100850.28
2023-05-30T15:40:09.009Z,100858.69
2023-05-30T15:42:37.360Z,100847.84
2023-05-30T15:45:06.246Z,100817.41
2023-05-30T15:47:40.797Z,100843.69
2023-05-30T15:50:15.920Z,100838.75
2023-05-30T15:53:24.628Z,100824.38
2023-05-30T15:55:59.514Z,100828.78
2023-05-30T16:01:11.398Z,100850.56
2023-05-30T16:03:39.664Z,100837.47
2023-05-30T16:06:10.480Z,100775.44
2023-05-30T16:08:37.330Z,100846.28
2023-05-30T16:11:06.140Z,100856.50
2023-05-30T16:13:34.774Z,100856.50
2023-05-30T16:16:04.097Z,100840.59
2023-05-30T16:18:34.225Z,100844.31
2023-05-30T16:21:05.508Z,100843.72
2023-05-30T16:23:32.794Z,100838.16
2023-05-30T16:28:45.081Z,100814.69
2023-05-30T16:31:20.225Z,100837.75
2023-05-30T16:33:48.825Z,100827.81
2023-05-30T16:39:14.172Z,100835.44
2023-05-30T16:41:50.621Z,100834.88
2023-05-30T16:47:00.259Z,100832.25
2023-05-30T16:52:11.919Z,100828.56
2023-05-30T16:54:41.507Z,100834.41
2023-05-30T16:57:11.051Z,100844.75
2023-05-30T16:59:49.245Z,100836.22
2023-05-30T17:02:18.949Z,100842.91
2023-05-30T17:04:56.585Z,100833.38
2023-05-30T17:07:33.727Z,100841.47
2023-05-30T17:12:59.915Z,100832.03
2023-05-30T17:18:10.587Z,100808.84
2023-05-30T17:23:28.497Z,100790.41
2023-05-30T17:26:17.136Z,100827.97
2023-05-30T17:34:05.498Z,100845.53
2023-05-30T17:36:32.860Z,100846.66
2023-05-30T17:39:02.251Z,100845.31
2023-05-30T17:41:29.463Z,100858.94
2023-05-30T17:43:58.776Z,100851.50
2023-05-30T17:46:43.556Z,100832.03
2023-05-30T17:49:14.378Z,100847.69
2023-05-30T17:51:45.209Z,100837.56
2023-05-30T17:57:01.405Z,100836.88
2023-05-30T17:59:39.317Z,100857.63
2023-05-30T18:05:25.343Z,100862.56
2023-05-30T18:10:36.761Z,100862.25
2023-05-30T18:13:26.082Z,100863.84
2023-05-30T18:15:57.054Z,100867.66
2023-05-30T18:21:09.207Z,100844.50
2023-05-30T18:23:39.104Z,100848.09
2023-05-30T18:32:08.065Z,100874.91
2023-05-30T18:34:38.501Z,100890.56
2023-05-30T18:37:07.290Z,100886.78
2023-05-30T18:39:40.082Z,100887.63
2023-05-30T18:42:10.148Z,100884.75
2023-05-30T18:44:43.527Z,100882.66
2023-05-30T18:52:35.320Z,100891.25
2023-05-30T18:55:01.941Z,100895.06
2023-05-30T18:57:39.856Z,100892.38
2023-05-30T19:05:43.823Z,100893.69
2023-05-30T19:08:11.809Z,100902.34
2023-05-30T19:18:54.007Z,100891.16
2023-05-30T19:21:23.071Z,100898.72
2023-05-30T19:29:18.175Z,100925.09
2023-05-30T19:31:45.425Z,100903.28
2023-05-30T19:37:00.723Z,100917.19
2023-05-30T19:39:32.691Z,100908.94
2023-05-30T19:42:03.913Z,100927.50
2023-05-30T19:47:18.004Z,100933.09
2023-05-30T19:49:54.206Z,100927.53
2023-05-30T19:52:23.414Z,100873.78
2023-05-30T19:57:35.843Z,100941.91
2023-05-30T20:02:45.938Z,100954.25
2023-05-30T20:05:14.140Z,100949.50
2023-05-30T20:07:41.705Z,100963.03
2023-05-30T20:10:12.050Z,100952.22
2023-05-30T20:12:49.529Z,100955.84
2023-05-30T20:15:17.076Z,100977.09
2023-05-30T20:17:48.472Z,100961.22
2023-05-30T20:20:16.082Z,100963.56
2023-05-30T20:22:42.977Z,100979.66
2023-05-30T20:25:15.118Z,100973.03
2023-05-30T20:27:47.407Z,100976.88
2023-05-30T20:30:17.063Z,100973.44
2023-05-30T20:35:34.761Z,100984.66
2023-05-30T20:38:01.868Z,100982.53
2023-05-30T20:40:28.623Z,100975.94
2023-05-30T20:43:04.373Z,100968.75
2023-05-30T20:45:35.811Z,100981.28
2023-05-30T20:54:22.329Z,100992.22
2023-05-30T20:56:50.815Z,100983.56
2023-05-30T20:59:24.143Z,100987.13
2023-05-30T21:01:55.044Z,100993.00
2023-05-30T21:04:39.203Z,100985.66
2023-05-30T21:07:06.137Z,101000.19
2023-05-30T21:09:33.302Z,100988.91
2023-05-30T21:12:05.185Z,100933.69
2023-05-30T21:14:41.799Z,100969.56
2023-05-30T21:20:03.315Z,100996.19
2023-05-30T21:22:30.878Z,100992.41
2023-05-30T21:24:59.500Z,100999.75
2023-05-30T21:27:26.596Z,100989.56
2023-05-30T21:29:57.227Z,100995.25
2023-05-30T21:32:25.368Z,100971.19
2023-05-30T21:37:41.668Z,101001.63
2023-05-30T21:40:18.689Z,100987.41
2023-05-30T21:42:48.889Z,100997.59
2023-05-30T21:45:15.819Z,100979.19
2023-05-30T21:47:46.413Z,100987.00
2023-05-30T21:50:16.167Z,100989.47
2023-05-30T21:52:43.314Z,101014.78
2023-05-30T21:57:59.563Z,101008.00
2023-05-30T22:00:31.888Z,101014.38
2023-05-30T22:02:59.013Z,101008.34
2023-05-30T22:05:36.856Z,101017.44
2023-05-30T22:08:06.592Z,101010.13
2023-05-30T22:10:33.256Z,101012.31
2023-05-30T22:13:00.938Z,101006.63
2023-05-30T22:15:29.948Z,101020.00
2023-05-30T22:18:11.137Z,101023.25
2023-05-30T22:20:41.804Z,101015.81
2023-05-30T22:23:37.887Z,101026.47
2023-05-30T22:26:11.874Z,101008.56
2023-05-30T22:28:39.431Z,101026.91
2023-05-30T22:31:08.304Z,101024.72
2023-05-30T22:33:37.106Z,101009.41
2023-05-30T22:36:03.819Z,101015.38
2023-05-30T22:38:30.737Z,101005.66
2023-05-30T22:40:58.775Z,101004.97
2023-05-30T22:43:25.629Z,101016.94
2023-05-30T22:45:52.503Z,101015.38
2023-05-30T22:48:19.472Z,101030.44
2023-05-30T22:50:47.407Z,101007.91
2023-05-30T22:53:14.150Z,101008.84
2023-05-30T22:55:40.679Z,101023.56
2023-05-30T22:58:09.270Z,101010.66
2023-05-30T23:00:41.455Z,101014.59
2023-05-30T23:03:15.184Z,100997.56
2023-05-30T23:05:46.442Z,100997.25
2023-05-30T23:08:16.385Z,101021.41
2023-05-30T23:10:45.800Z,101017.34
2023-05-30T23:17:54.334Z,101015.84
2023-05-30T23:23:16.534Z,101015.31
2023-05-30T23:25:45.368Z,101016.16
2023-05-30T23:34:08.419Z,101007.69
2023-05-30T23:45:22.883Z,101016.47
2023-05-30T23:50:46.735Z,101015.44
2023-05-30T23:53:18.928Z,101009.25
